sensor_id;sensor_type;location;lat;lon;timestamp;P1;durP1;ratioP1;P2;durP2;ratioP2
10727;SDS011;5415;59.322;18.246;2023-02-28T00:00:43;1.20;;;1.00;;
10727;SDS011;5415;59.322;18.246;2023-02-28T00:03:10;1.00;;;0.83;;
10727;SDS011;5415;59.322;18.246;2023-02-28T00:05:37;1.10;;;1.00;;
10727;SDS011;5415;59.322;18.246;2023-02-28T00:08:06;1.07;;;0.97;;
10727;SDS011;5415;59.322;18.246;2023-02-28T00:10:36;1.33;;;1.00;;
10727;SDS011;5415;59.322;18.246;2023-02-28T00:13:05;0.93;;;0.90;;
10727;SDS011;5415;59.322;18.246;2023-02-28T00:15:33;1.33;;;1.00;;
10727;SDS011;5415;59.322;18.246;2023-02-28T00:18:02;1.20;;;1.10;;
10727;SDS011;5415;59.322;18.246;2023-02-28T00:20:30;1.63;;;1.10;;
10727;SDS011;5415;59.322;18.246;2023-02-28T00:22:57;2.20;;;1.00;;
10727;SDS011;5415;59.322;18.246;2023-02-28T00:25:24;1.53;;;1.20;;
10727;SDS011;5415;59.322;18.246;2023-02-28T00:27:52;1.13;;;1.00;;
10727;SDS011;5415;59.322;18.246;2023-02-28T00:30:20;0.90;;;0.90;;
10727;SDS011;5415;59.322;18.246;2023-02-28T00:32:48;1.10;;;1.00;;
10727;SDS011;5415;59.322;18.246;2023-02-28T00:35:19;1.20;;;1.10;;
10727;SDS011;5415;59.322;18.246;2023-02-28T00:37:47;0.90;;;0.80;;
10727;SDS011;5415;59.322;18.246;2023-02-28T00:40:16;0.80;;;0.80;;
10727;SDS011;5415;59.322;18.246;2023-02-28T00:42:43;1.13;;;1.03;;
10727;SDS011;5415;59.322;18.246;2023-02-28T00:45:11;0.90;;;0.90;;
10727;SDS011;5415;59.322;18.246;2023-02-28T00:47:39;1.10;;;1.00;;
10727;SDS011;5415;59.322;18.246;2023-02-28T00:50:07;1.17;;;1.07;;
10727;SDS011;5415;59.322;18.246;2023-02-28T00:52:37;1.53;;;0.97;;
10727;SDS011;5415;59.322;18.246;2023-02-28T00:55:06;1.23;;;1.13;;
10727;SDS011;5415;59.322;18.246;2023-02-28T00:57:33;1.07;;;1.00;;
10727;SDS011;5415;59.322;18.246;2023-02-28T01:00:03;1.83;;;1.10;;
10727;SDS011;5415;59.322;18.246;2023-02-28T01:02:31;0.90;;;0.90;;
10727;SDS011;5415;59.322;18.246;2023-02-28T01:05:00;1.17;;;0.80;;
10727;SDS011;5415;59.322;18.246;2023-02-28T01:07:27;1.40;;;1.00;;
10727;SDS011;5415;59.322;18.246;2023-02-28T01:09:56;1.20;;;1.10;;
10727;SDS011;5415;59.322;18.246;2023-02-28T01:12:24;1.00;;;0.90;;
10727;SDS011;5415;59.322;18.246;2023-02-28T01:14:52;0.80;;;0.80;;
10727;SDS011;5415;59.322;18.246;2023-02-28T01:17:19;1.23;;;1.13;;
10727;SDS011;5415;59.322;18.246;2023-02-28T01:19:47;0.90;;;0.90;;
10727;SDS011;5415;59.322;18.246;2023-02-28T01:22:15;0.80;;;0.80;;
10727;SDS011;5415;59.322;18.246;2023-02-28T01:24:43;0.90;;;0.90;;
10727;SDS011;5415;59.322;18.246;2023-02-28T01:27:12;1.27;;;1.00;;
10727;SDS011;5415;59.322;18.246;2023-02-28T01:29:39;1.20;;;1.10;;
10727;SDS011;5415;59.322;18.246;2023-02-28T01:32:06;2.63;;;0.93;;
10727;SDS011;5415;59.322;18.246;2023-02-28T01:34:35;0.90;;;0.90;;
10727;SDS011;5415;59.322;18.246;2023-02-28T01:37:03;1.20;;;1.10;;
10727;SDS011;5415;59.322;18.246;2023-02-28T01:39:30;1.00;;;0.93;;
10727;SDS011;5415;59.322;18.246;2023-02-28T01:41:58;1.20;;;1.10;;
10727;SDS011;5415;59.322;18.246;2023-02-28T01:47:15;1.03;;;0.97;;
10727;SDS011;5415;59.322;18.246;2023-02-28T01:49:44;0.93;;;0.90;;
10727;SDS011;5415;59.322;18.246;2023-02-28T01:52:12;0.80;;;0.80;;
10727;SDS011;5415;59.322;18.246;2023-02-28T01:54:43;1.27;;;0.87;;
10727;SDS011;5415;59.322;18.246;2023-02-28T01:57:12;0.80;;;0.80;;
10727;SDS011;5415;59.322;18.246;2023-02-28T01:59:43;0.80;;;0.80;;
10727;SDS011;5415;59.322;18.246;2023-02-28T02:02:16;1.30;;;0.87;;
10727;SDS011;5415;59.322;18.246;2023-02-28T02:04:46;1.00;;;0.90;;
10727;SDS011;5415;59.322;18.246;2023-02-28T02:07:17;0.80;;;0.80;;
10727;SDS011;5415;59.322;18.246;2023-02-28T02:09:44;1.10;;;0.90;;
10727;SDS011;5415;59.322;18.246;2023-02-28T02:12:15;1.50;;;0.80;;
10727;SDS011;5415;59.322;18.246;2023-02-28T02:14:50;1.00;;;0.90;;
10727;SDS011;5415;59.322;18.246;2023-02-28T02:17:25;0.70;;;0.70;;
10727;SDS011;5415;59.322;18.246;2023-02-28T02:20:14;1.40;;;0.80;;
10727;SDS011;5415;59.322;18.246;2023-02-28T02:22:59;1.00;;;0.80;;
10727;SDS011;5415;59.322;18.246;2023-02-28T02:25:30;0.93;;;0.80;;
10727;SDS011;5415;59.322;18.246;2023-02-28T02:28:06;1.43;;;0.93;;
10727;SDS011;5415;59.322;18.246;2023-02-28T02:36:11;1.23;;;0.97;;
10727;SDS011;5415;59.322;18.246;2023-02-28T02:38:42;1.03;;;0.80;;
10727;SDS011;5415;59.322;18.246;2023-02-28T02:41:14;1.20;;;1.10;;
10727;SDS011;5415;59.322;18.246;2023-02-28T02:43:45;1.07;;;0.97;;
10727;SDS011;5415;59.322;18.246;2023-02-28T02:46:14;0.80;;;0.80;;
10727;SDS011;5415;59.322;18.246;2023-02-28T02:48:43;0.93;;;0.90;;
10727;SDS011;5415;59.322;18.246;2023-02-28T02:51:14;1.07;;;0.97;;
10727;SDS011;5415;59.322;18.246;2023-02-28T02:53:46;1.10;;;1.00;;
10727;SDS011;5415;59.322;18.246;2023-02-28T02:56:15;0.93;;;0.90;;
10727;SDS011;5415;59.322;18.246;2023-02-28T02:58:45;0.83;;;0.83;;
10727;SDS011;5415;59.322;18.246;2023-02-28T03:01:15;0.90;;;0.80;;
10727;SDS011;5415;59.322;18.246;2023-02-28T03:03:53;0.83;;;0.83;;
10727;SDS011;5415;59.322;18.246;2023-02-28T03:06:23;0.83;;;0.83;;
10727;SDS011;5415;59.322;18.246;2023-02-28T03:08:51;0.70;;;0.70;;
10727;SDS011;5415;59.322;18.246;2023-02-28T03:11:18;1.03;;;0.80;;
10727;SDS011;5415;59.322;18.246;2023-02-28T03:13:51;0.90;;;0.90;;
10727;SDS011;5415;59.322;18.246;2023-02-28T03:16:24;1.43;;;0.80;;
10727;SDS011;5415;59.322;18.246;2023-02-28T03:18:54;0.97;;;0.87;;
10727;SDS011;5415;59.322;18.246;2023-02-28T03:21:26;0.80;;;0.80;;
10727;SDS011;5415;59.322;18.246;2023-02-28T03:23:56;1.03;;;0.80;;
10727;SDS011;5415;59.322;18.246;2023-02-28T03:26:26;2.23;;;0.90;;
10727;SDS011;5415;59.322;18.246;2023-02-28T03:28:55;1.00;;;0.70;;
10727;SDS011;5415;59.322;18.246;2023-02-28T03:31:26;0.70;;;0.70;;
10727;SDS011;5415;59.322;18.246;2023-02-28T03:33:55;0.60;;;0.60;;
10727;SDS011;5415;59.322;18.246;2023-02-28T03:36:26;0.80;;;0.77;;
10727;SDS011;5415;59.322;18.246;2023-02-28T03:38:56;0.80;;;0.70;;
10727;SDS011;5415;59.322;18.246;2023-02-28T03:41:27;0.80;;;0.80;;
10727;SDS011;5415;59.322;18.246;2023-02-28T03:43:58;1.00;;;0.90;;
10727;SDS011;5415;59.322;18.246;2023-02-28T03:46:27;1.23;;;0.93;;
10727;SDS011;5415;59.322;18.246;2023-02-28T03:49:00;0.93;;;0.70;;
10727;SDS011;5415;59.322;18.246;2023-02-28T03:51:30;0.63;;;0.63;;
10727;SDS011;5415;59.322;18.246;2023-02-28T03:54:00;0.70;;;0.70;;
10727;SDS011;5415;59.322;18.246;2023-02-28T03:56:30;1.60;;;0.60;;
10727;SDS011;5415;59.322;18.246;2023-02-28T03:59:00;0.77;;;0.77;;
10727;SDS011;5415;59.322;18.246;2023-02-28T04:01:31;2.27;;;1.00;;
10727;SDS011;5415;59.322;18.246;2023-02-28T04:04:00;5.07;;;1.10;;
10727;SDS011;5415;59.322;18.246;2023-02-28T04:06:29;1.23;;;0.97;;
10727;SDS011;5415;59.322;18.246;2023-02-28T04:08:58;1.60;;;0.80;;
10727;SDS011;5415;59.322;18.246;2023-02-28T04:11:27;0.80;;;0.70;;
10727;SDS011;5415;59.322;18.246;2023-02-28T04:13:57;1.07;;;0.90;;
10727;SDS011;5415;59.322;18.246;2023-02-28T04:16:26;1.93;;;1.10;;
10727;SDS011;5415;59.322;18.246;2023-02-28T04:18:54;0.70;;;0.70;;
10727;SDS011;5415;59.322;18.246;2023-02-28T04:21:27;1.33;;;0.90;;
10727;SDS011;5415;59.322;18.246;2023-02-28T04:23:54;0.93;;;0.70;;
10727;SDS011;5415;59.322;18.246;2023-02-28T04:26:27;0.97;;;0.87;;
10727;SDS011;5415;59.322;18.246;2023-02-28T04:28:55;1.07;;;1.00;;
10727;SDS011;5415;59.322;18.246;2023-02-28T04:31:22;0.70;;;0.70;;
10727;SDS011;5415;59.322;18.246;2023-02-28T04:33:52;0.80;;;0.80;;
10727;SDS011;5415;59.322;18.246;2023-02-28T04:36:20;0.87;;;0.73;;
10727;SDS011;5415;59.322;18.246;2023-02-28T04:38:48;0.90;;;0.70;;
10727;SDS011;5415;59.322;18.246;2023-02-28T04:41:15;0.60;;;0.60;;
10727;SDS011;5415;59.322;18.246;2023-02-28T04:43:52;0.80;;;0.80;;
10727;SDS011;5415;59.322;18.246;2023-02-28T04:46:21;0.80;;;0.80;;
10727;SDS011;5415;59.322;18.246;2023-02-28T04:48:50;0.80;;;0.80;;
10727;SDS011;5415;59.322;18.246;2023-02-28T04:51:18;1.10;;;0.97;;
10727;SDS011;5415;59.322;18.246;2023-02-28T04:53:46;0.63;;;0.63;;
10727;SDS011;5415;59.322;18.246;2023-02-28T04:56:14;1.10;;;0.80;;
10727;SDS011;5415;59.322;18.246;2023-02-28T04:58:43;1.37;;;0.80;;
10727;SDS011;5415;59.322;18.246;2023-02-28T05:01:20;0.73;;;0.63;;
10727;SDS011;5415;59.322;18.246;2023-02-28T05:03:48;0.97;;;0.87;;
10727;SDS011;5415;59.322;18.246;2023-02-28T05:06:16;2.30;;;0.80;;
10727;SDS011;5415;59.322;18.246;2023-02-28T05:08:44;0.90;;;0.80;;
10727;SDS011;5415;59.322;18.246;2023-02-28T05:11:15;0.70;;;0.70;;
10727;SDS011;5415;59.322;18.246;2023-02-28T05:13:43;0.67;;;0.67;;
10727;SDS011;5415;59.322;18.246;2023-02-28T05:16:10;0.80;;;0.80;;
10727;SDS011;5415;59.322;18.246;2023-02-28T05:18:39;0.93;;;0.70;;
10727;SDS011;5415;59.322;18.246;2023-02-28T05:21:15;0.67;;;0.67;;
10727;SDS011;5415;59.322;18.246;2023-02-28T05:23:49;0.73;;;0.73;;
10727;SDS011;5415;59.322;18.246;2023-02-28T05:26:16;0.87;;;0.87;;
10727;SDS011;5415;59.322;18.246;2023-02-28T05:28:44;0.70;;;0.70;;
10727;SDS011;5415;59.322;18.246;2023-02-28T05:31:12;0.90;;;0.90;;
10727;SDS011;5415;59.322;18.246;2023-02-28T05:33:41;0.80;;;0.80;;
10727;SDS011;5415;59.322;18.246;2023-02-28T05:36:09;1.10;;;0.70;;
10727;SDS011;5415;59.322;18.246;2023-02-28T05:38:37;0.70;;;0.70;;
10727;SDS011;5415;59.322;18.246;2023-02-28T05:41:05;4.53;;;0.87;;
10727;SDS011;5415;59.322;18.246;2023-02-28T05:43:35;0.80;;;0.70;;
10727;SDS011;5415;59.322;18.246;2023-02-28T05:46:04;0.70;;;0.70;;
10727;SDS011;5415;59.322;18.246;2023-02-28T05:48:33;0.73;;;0.73;;
10727;SDS011;5415;59.322;18.246;2023-02-28T05:51:02;0.80;;;0.80;;
10727;SDS011;5415;59.322;18.246;2023-02-28T05:53:30;0.77;;;0.77;;
10727;SDS011;5415;59.322;18.246;2023-02-28T05:55:57;0.70;;;0.60;;
10727;SDS011;5415;59.322;18.246;2023-02-28T05:58:25;0.67;;;0.67;;
10727;SDS011;5415;59.322;18.246;2023-02-28T06:00:55;0.77;;;0.77;;
10727;SDS011;5415;59.322;18.246;2023-02-28T06:03:23;1.57;;;0.70;;
10727;SDS011;5415;59.322;18.246;2023-02-28T06:05:51;1.30;;;0.60;;
10727;SDS011;5415;59.322;18.246;2023-02-28T06:08:20;0.70;;;0.70;;
10727;SDS011;5415;59.322;18.246;2023-02-28T06:10:48;1.20;;;0.80;;
10727;SDS011;5415;59.322;18.246;2023-02-28T06:13:16;0.70;;;0.60;;
10727;SDS011;5415;59.322;18.246;2023-02-28T06:15:44;0.70;;;0.70;;
10727;SDS011;5415;59.322;18.246;2023-02-28T06:18:11;1.73;;;0.80;;
10727;SDS011;5415;59.322;18.246;2023-02-28T06:20:39;0.73;;;0.50;;
10727;SDS011;5415;59.322;18.246;2023-02-28T06:23:07;0.80;;;0.80;;
10727;SDS011;5415;59.322;18.246;2023-02-28T06:25:38;0.73;;;0.73;;
10727;SDS011;5415;59.322;18.246;2023-02-28T06:28:05;0.80;;;0.80;;
10727;SDS011;5415;59.322;18.246;2023-02-28T06:30:32;0.73;;;0.73;;
10727;SDS011;5415;59.322;18.246;2023-02-28T06:33:00;0.73;;;0.73;;
10727;SDS011;5415;59.322;18.246;2023-02-28T06:35:28;0.70;;;0.70;;
10727;SDS011;5415;59.322;18.246;2023-02-28T06:37:55;0.60;;;0.60;;
10727;SDS011;5415;59.322;18.246;2023-02-28T06:40:23;0.67;;;0.67;;
10727;SDS011;5415;59.322;18.246;2023-02-28T06:42:52;1.30;;;0.87;;
10727;SDS011;5415;59.322;18.246;2023-02-28T06:45:20;0.97;;;0.90;;
10727;SDS011;5415;59.322;18.246;2023-02-28T06:47:48;0.70;;;0.70;;
10727;SDS011;5415;59.322;18.246;2023-02-28T06:50:17;0.77;;;0.77;;
10727;SDS011;5415;59.322;18.246;2023-02-28T06:52:46;1.27;;;0.80;;
10727;SDS011;5415;59.322;18.246;2023-02-28T06:55:18;0.90;;;0.90;;
10727;SDS011;5415;59.322;18.246;2023-02-28T06:57:47;1.30;;;0.97;;
10727;SDS011;5415;59.322;18.246;2023-02-28T07:00:18;0.60;;;0.60;;
10727;SDS011;5415;59.322;18.246;2023-02-28T07:02:46;1.10;;;0.73;;
10727;SDS011;5415;59.322;18.246;2023-02-28T07:05:14;0.70;;;0.70;;
10727;SDS011;5415;59.322;18.246;2023-02-28T07:07:41;1.23;;;0.90;;
10727;SDS011;5415;59.322;18.246;2023-02-28T07:10:11;1.67;;;0.70;;
10727;SDS011;5415;59.322;18.246;2023-02-28T07:12:41;1.83;;;0.90;;
10727;SDS011;5415;59.322;18.246;2023-02-28T07:15:10;2.43;;;1.00;;
10727;SDS011;5415;59.322;18.246;2023-02-28T07:17:40;1.00;;;0.80;;
10727;SDS011;5415;59.322;18.246;2023-02-28T07:20:08;0.70;;;0.70;;
10727;SDS011;5415;59.322;18.246;2023-02-28T07:22:36;1.10;;;0.90;;
10727;SDS011;5415;59.322;18.246;2023-02-28T07:25:04;0.70;;;0.70;;
10727;SDS011;5415;59.322;18.246;2023-02-28T07:27:31;2.57;;;1.03;;
10727;SDS011;5415;59.322;18.246;2023-02-28T07:30:01;2.00;;;0.93;;
10727;SDS011;5415;59.322;18.246;2023-02-28T07:32:30;0.90;;;0.63;;
10727;SDS011;5415;59.322;18.246;2023-02-28T07:35:00;1.13;;;0.97;;
10727;SDS011;5415;59.322;18.246;2023-02-28T07:37:28;1.57;;;0.80;;
10727;SDS011;5415;59.322;18.246;2023-02-28T07:40:01;0.83;;;0.70;;
10727;SDS011;5415;59.322;18.246;2023-02-28T07:42:31;0.70;;;0.70;;
10727;SDS011;5415;59.322;18.246;2023-02-28T07:44:58;0.70;;;0.70;;
10727;SDS011;5415;59.322;18.246;2023-02-28T07:47:26;2.03;;;0.90;;
10727;SDS011;5415;59.322;18.246;2023-02-28T07:49:53;1.00;;;0.80;;
10727;SDS011;5415;59.322;18.246;2023-02-28T07:52:23;0.70;;;0.70;;
10727;SDS011;5415;59.322;18.246;2023-02-28T07:54:51;1.17;;;0.90;;
10727;SDS011;5415;59.322;18.246;2023-02-28T07:57:18;1.10;;;0.70;;
10727;SDS011;5415;59.322;18.246;2023-02-28T07:59:46;0.87;;;0.80;;
10727;SDS011;5415;59.322;18.246;2023-02-28T08:02:14;2.00;;;0.83;;
10727;SDS011;5415;59.322;18.246;2023-02-28T08:04:42;0.70;;;0.70;;
10727;SDS011;5415;59.322;18.246;2023-02-28T08:07:09;1.40;;;0.90;;
10727;SDS011;5415;59.322;18.246;2023-02-28T08:09:40;0.87;;;0.80;;
10727;SDS011;5415;59.322;18.246;2023-02-28T08:12:08;0.97;;;0.80;;
10727;SDS011;5415;59.322;18.246;2023-02-28T08:14:37;1.53;;;0.77;;
10727;SDS011;5415;59.322;18.246;2023-02-28T08:17:05;1.60;;;0.90;;
10727;SDS011;5415;59.322;18.246;2023-02-28T08:19:32;0.90;;;0.70;;
10727;SDS011;5415;59.322;18.246;2023-02-28T08:22:00;0.80;;;0.80;;
10727;SDS011;5415;59.322;18.246;2023-02-28T08:24:27;1.40;;;0.80;;
10727;SDS011;5415;59.322;18.246;2023-02-28T08:26:58;0.70;;;0.70;;
10727;SDS011;5415;59.322;18.246;2023-02-28T08:29:25;2.40;;;0.70;;
10727;SDS011;5415;59.322;18.246;2023-02-28T08:31:56;0.73;;;0.70;;
10727;SDS011;5415;59.322;18.246;2023-02-28T08:34:24;1.30;;;0.90;;
10727;SDS011;5415;59.322;18.246;2023-02-28T08:36:51;1.77;;;0.63;;
10727;SDS011;5415;59.322;18.246;2023-02-28T08:39:19;0.70;;;0.70;;
10727;SDS011;5415;59.322;18.246;2023-02-28T08:41:47;1.83;;;0.90;;
10727;SDS011;5415;59.322;18.246;2023-02-28T08:44:17;1.90;;;0.50;;
10727;SDS011;5415;59.322;18.246;2023-02-28T08:46:45;2.87;;;0.90;;
10727;SDS011;5415;59.322;18.246;2023-02-28T08:49:12;1.43;;;0.70;;
10727;SDS011;5415;59.322;18.246;2023-02-28T08:51:43;1.67;;;0.70;;
10727;SDS011;5415;59.322;18.246;2023-02-28T08:54:11;1.07;;;0.77;;
10727;SDS011;5415;59.322;18.246;2023-02-28T08:56:41;0.90;;;0.67;;
10727;SDS011;5415;59.322;18.246;2023-02-28T08:59:09;2.70;;;0.90;;
10727;SDS011;5415;59.322;18.246;2023-02-28T09:01:38;1.10;;;0.80;;
10727;SDS011;5415;59.322;18.246;2023-02-28T09:04:06;0.70;;;0.70;;
10727;SDS011;5415;59.322;18.246;2023-02-28T09:06:35;3.50;;;0.70;;
10727;SDS011;5415;59.322;18.246;2023-02-28T09:09:05;0.80;;;0.80;;
10727;SDS011;5415;59.322;18.246;2023-02-28T09:11:32;2.20;;;1.40;;
10727;SDS011;5415;59.322;18.246;2023-02-28T09:14:01;2.03;;;1.60;;
10727;SDS011;5415;59.322;18.246;2023-02-28T09:16:31;1.87;;;1.33;;
10727;SDS011;5415;59.322;18.246;2023-02-28T09:19:00;2.37;;;1.33;;
10727;SDS011;5415;59.322;18.246;2023-02-28T09:21:28;1.50;;;1.10;;
10727;SDS011;5415;59.322;18.246;2023-02-28T09:23:56;1.23;;;1.13;;
10727;SDS011;5415;59.322;18.246;2023-02-28T09:26:24;0.80;;;0.80;;
10727;SDS011;5415;59.322;18.246;2023-02-28T09:28:52;2.20;;;0.80;;
10727;SDS011;5415;59.322;18.246;2023-02-28T09:31:22;1.37;;;0.90;;
10727;SDS011;5415;59.322;18.246;2023-02-28T09:33:51;0.93;;;0.80;;
10727;SDS011;5415;59.322;18.246;2023-02-28T09:36:21;1.43;;;0.97;;
10727;SDS011;5415;59.322;18.246;2023-02-28T09:38:49;0.80;;;0.80;;
10727;SDS011;5415;59.322;18.246;2023-02-28T09:41:19;2.00;;;1.33;;
10727;SDS011;5415;59.322;18.246;2023-02-28T09:43:49;1.73;;;0.90;;
10727;SDS011;5415;59.322;18.246;2023-02-28T09:46:21;2.73;;;0.80;;
10727;SDS011;5415;59.322;18.246;2023-02-28T09:48:53;1.87;;;0.83;;
10727;SDS011;5415;59.322;18.246;2023-02-28T09:51:33;3.20;;;0.93;;
10727;SDS011;5415;59.322;18.246;2023-02-28T09:54:02;3.17;;;0.80;;
10727;SDS011;5415;59.322;18.246;2023-02-28T09:56:30;2.07;;;0.90;;
10727;SDS011;5415;59.322;18.246;2023-02-28T09:59:00;0.87;;;0.80;;
10727;SDS011;5415;59.322;18.246;2023-02-28T10:01:30;1.47;;;0.70;;
10727;SDS011;5415;59.322;18.246;2023-02-28T10:04:00;0.70;;;0.70;;
10727;SDS011;5415;59.322;18.246;2023-02-28T10:06:32;1.53;;;0.70;;
10727;SDS011;5415;59.322;18.246;2023-02-28T10:09:02;1.27;;;1.03;;
10727;SDS011;5415;59.322;18.246;2023-02-28T10:11:32;0.80;;;0.80;;
10727;SDS011;5415;59.322;18.246;2023-02-28T10:14:02;0.50;;;0.50;;
10727;SDS011;5415;59.322;18.246;2023-02-28T10:16:31;1.43;;;1.00;;
10727;SDS011;5415;59.322;18.246;2023-02-28T10:19:02;4.00;;;0.70;;
10727;SDS011;5415;59.322;18.246;2023-02-28T10:21:34;0.67;;;0.60;;
10727;SDS011;5415;59.322;18.246;2023-02-28T10:24:03;2.57;;;0.73;;
10727;SDS011;5415;59.322;18.246;2023-02-28T10:26:32;1.60;;;0.70;;
10727;SDS011;5415;59.322;18.246;2023-02-28T10:29:01;1.07;;;0.60;;
10727;SDS011;5415;59.322;18.246;2023-02-28T10:31:30;2.00;;;0.63;;
10727;SDS011;5415;59.322;18.246;2023-02-28T10:33:58;0.77;;;0.77;;
10727;SDS011;5415;59.322;18.246;2023-02-28T10:36:26;0.70;;;0.70;;
10727;SDS011;5415;59.322;18.246;2023-02-28T10:38:55;0.73;;;0.73;;
10727;SDS011;5415;59.322;18.246;2023-02-28T10:41:28;0.80;;;0.80;;
10727;SDS011;5415;59.322;18.246;2023-02-28T10:44:12;2.70;;;0.90;;
10727;SDS011;5415;59.322;18.246;2023-02-28T10:46:40;2.30;;;0.60;;
10727;SDS011;5415;59.322;18.246;2023-02-28T10:49:12;1.47;;;1.00;;
10727;SDS011;5415;59.322;18.246;2023-02-28T10:51:41;1.53;;;0.80;;
10727;SDS011;5415;59.322;18.246;2023-02-28T10:57:06;2.70;;;1.80;;
10727;SDS011;5415;59.322;18.246;2023-02-28T10:59:35;4.63;;;2.40;;
10727;SDS011;5415;59.322;18.246;2023-02-28T11:02:08;5.90;;;2.47;;
10727;SDS011;5415;59.322;18.246;2023-02-28T11:04:54;3.83;;;2.03;;
10727;SDS011;5415;59.322;18.246;2023-02-28T11:07:22;1.43;;;1.30;;
10727;SDS011;5415;59.322;18.246;2023-02-28T11:09:50;1.83;;;0.90;;
10727;SDS011;5415;59.322;18.246;2023-02-28T11:12:21;2.63;;;1.37;;
10727;SDS011;5415;59.322;18.246;2023-02-28T11:14:50;0.80;;;0.80;;
10727;SDS011;5415;59.322;18.246;2023-02-28T11:17:19;3.77;;;1.10;;
10727;SDS011;5415;59.322;18.246;2023-02-28T11:19:49;2.33;;;0.80;;
10727;SDS011;5415;59.322;18.246;2023-02-28T11:22:17;4.07;;;0.80;;
10727;SDS011;5415;59.322;18.246;2023-02-28T11:24:47;1.10;;;1.00;;
10727;SDS011;5415;59.322;18.246;2023-02-28T11:27:39;1.83;;;0.90;;
10727;SDS011;5415;59.322;18.246;2023-02-28T11:30:22;3.83;;;1.03;;
10727;SDS011;5415;59.322;18.246;2023-02-28T11:32:50;1.10;;;1.00;;
10727;SDS011;5415;59.322;18.246;2023-02-28T11:35:21;2.57;;;0.97;;
10727;SDS011;5415;59.322;18.246;2023-02-28T11:37:50;1.73;;;0.90;;
10727;SDS011;5415;59.322;18.246;2023-02-28T11:40:18;7.10;;;1.00;;
10727;SDS011;5415;59.322;18.246;2023-02-28T11:42:52;5.00;;;1.00;;
10727;SDS011;5415;59.322;18.246;2023-02-28T11:45:25;3.27;;;0.73;;
10727;SDS011;5415;59.322;18.246;2023-02-28T11:47:59;2.97;;;0.80;;
10727;SDS011;5415;59.322;18.246;2023-02-28T11:53:17;3.90;;;0.67;;
10727;SDS011;5415;59.322;18.246;2023-02-28T11:55:47;6.80;;;0.93;;
10727;SDS011;5415;59.322;18.246;2023-02-28T12:01:19;3.43;;;0.90;;
10727;SDS011;5415;59.322;18.246;2023-02-28T12:03:54;3.23;;;0.83;;
10727;SDS011;5415;59.322;18.246;2023-02-28T12:06:28;4.73;;;1.00;;
10727;SDS011;5415;59.322;18.246;2023-02-28T12:09:02;1.63;;;0.70;;
10727;SDS011;5415;59.322;18.246;2023-02-28T12:11:34;3.23;;;0.90;;
10727;SDS011;5415;59.322;18.246;2023-02-28T12:14:12;2.57;;;0.73;;
10727;SDS011;5415;59.322;18.246;2023-02-28T12:16:50;1.73;;;0.80;;
10727;SDS011;5415;59.322;18.246;2023-02-28T12:19:23;2.13;;;0.70;;
10727;SDS011;5415;59.322;18.246;2023-02-28T12:22:03;1.43;;;0.70;;
10727;SDS011;5415;59.322;18.246;2023-02-28T12:24:40;2.20;;;0.70;;
10727;SDS011;5415;59.322;18.246;2023-02-28T12:27:13;3.13;;;0.80;;
10727;SDS011;5415;59.322;18.246;2023-02-28T12:29:43;4.50;;;0.90;;
10727;SDS011;5415;59.322;18.246;2023-02-28T12:32:16;2.40;;;0.90;;
10727;SDS011;5415;59.322;18.246;2023-02-28T12:34:47;1.80;;;1.17;;
10727;SDS011;5415;59.322;18.246;2023-02-28T12:37:19;1.13;;;1.03;;
10727;SDS011;5415;59.322;18.246;2023-02-28T12:39:49;7.10;;;1.60;;
10727;SDS011;5415;59.322;18.246;2023-02-28T12:42:19;1.97;;;0.90;;
10727;SDS011;5415;59.322;18.246;2023-02-28T12:44:48;4.78;;;1.10;;
10727;SDS011;5415;59.322;18.246;2023-02-28T12:47:22;3.60;;;0.90;;
10727;SDS011;5415;59.322;18.246;2023-02-28T12:49:49;5.33;;;1.07;;
10727;SDS011;5415;59.322;18.246;2023-02-28T12:52:22;0.90;;;0.90;;
10727;SDS011;5415;59.322;18.246;2023-02-28T12:54:51;3.60;;;0.60;;
10727;SDS011;5415;59.322;18.246;2023-02-28T12:57:24;4.73;;;0.80;;
10727;SDS011;5415;59.322;18.246;2023-02-28T12:59:53;2.90;;;0.90;;
10727;SDS011;5415;59.322;18.246;2023-02-28T13:02:32;1.10;;;0.80;;
10727;SDS011;5415;59.322;18.246;2023-02-28T13:05:10;1.97;;;0.73;;
10727;SDS011;5415;59.322;18.246;2023-02-28T13:10:37;4.67;;;0.90;;
10727;SDS011;5415;59.322;18.246;2023-02-28T13:13:05;2.47;;;0.83;;
10727;SDS011;5415;59.322;18.246;2023-02-28T13:15:37;5.20;;;1.00;;
10727;SDS011;5415;59.322;18.246;2023-02-28T13:18:20;1.37;;;0.90;;
10727;SDS011;5415;59.322;18.246;2023-02-28T13:20:54;1.10;;;1.00;;
10727;SDS011;5415;59.322;18.246;2023-02-28T13:26:17;2.03;;;1.50;;
10727;SDS011;5415;59.322;18.246;2023-02-28T13:31:29;2.70;;;2.10;;
10727;SDS011;5415;59.322;18.246;2023-02-28T13:34:05;5.70;;;2.87;;
10727;SDS011;5415;59.322;18.246;2023-02-28T13:36:34;1.57;;;1.23;;
10727;SDS011;5415;59.322;18.246;2023-02-28T13:39:02;2.93;;;0.80;;
10727;SDS011;5415;59.322;18.246;2023-02-28T13:44:16;2.97;;;0.90;;
10727;SDS011;5415;59.322;18.246;2023-02-28T13:49:40;1.10;;;0.83;;
10727;SDS011;5415;59.322;18.246;2023-02-28T13:52:10;1.60;;;0.90;;
10727;SDS011;5415;59.322;18.246;2023-02-28T13:54:44;0.70;;;0.60;;
10727;SDS011;5415;59.322;18.246;2023-02-28T13:57:22;2.53;;;0.90;;
10727;SDS011;5415;59.322;18.246;2023-02-28T13:59:54;2.03;;;1.17;;
10727;SDS011;5415;59.322;18.246;2023-02-28T14:02:30;1.00;;;0.90;;
10727;SDS011;5415;59.322;18.246;2023-02-28T14:05:02;2.70;;;1.00;;
10727;SDS011;5415;59.322;18.246;2023-02-28T14:07:31;1.07;;;0.70;;
10727;SDS011;5415;59.322;18.246;2023-02-28T14:10:01;2.47;;;0.70;;
10727;SDS011;5415;59.322;18.246;2023-02-28T14:15:27;1.10;;;0.70;;
10727;SDS011;5415;59.322;18.246;2023-02-28T14:17:55;0.87;;;0.70;;
10727;SDS011;5415;59.322;18.246;2023-02-28T14:20:27;1.10;;;0.90;;
10727;SDS011;5415;59.322;18.246;2023-02-28T14:23:00;1.67;;;0.73;;
10727;SDS011;5415;59.322;18.246;2023-02-28T14:25:33;1.47;;;0.70;;
10727;SDS011;5415;59.322;18.246;2023-02-28T14:28:04;3.40;;;0.80;;
10727;SDS011;5415;59.322;18.246;2023-02-28T14:30:40;0.77;;;0.67;;
10727;SDS011;5415;59.322;18.246;2023-02-28T14:33:13;1.67;;;0.77;;
10727;SDS011;5415;59.322;18.246;2023-02-28T14:35:53;0.57;;;0.57;;
10727;SDS011;5415;59.322;18.246;2023-02-28T14:38:27;1.33;;;0.70;;
10727;SDS011;5415;59.322;18.246;2023-02-28T14:40:56;1.90;;;0.80;;
10727;SDS011;5415;59.322;18.246;2023-02-28T14:43:25;4.30;;;0.80;;
10727;SDS011;5415;59.322;18.246;2023-02-28T14:45:53;1.03;;;0.60;;
10727;SDS011;5415;59.322;18.246;2023-02-28T14:48:22;1.43;;;0.83;;
10727;SDS011;5415;59.322;18.246;2023-02-28T14:50:54;4.40;;;0.87;;
10727;SDS011;5415;59.322;18.246;2023-02-28T14:53:25;1.23;;;0.83;;
10727;SDS011;5415;59.322;18.246;2023-02-28T14:55:53;1.77;;;0.87;;
10727;SDS011;5415;59.322;18.246;2023-02-28T14:58:21;2.60;;;1.00;;
10727;SDS011;5415;59.322;18.246;2023-02-28T15:00:50;2.65;;;0.90;;
10727;SDS011;5415;59.322;18.246;2023-02-28T15:03:19;2.57;;;1.20;;
10727;SDS011;5415;59.322;18.246;2023-02-28T15:05:51;1.43;;;1.10;;
10727;SDS011;5415;59.322;18.246;2023-02-28T15:08:22;1.47;;;0.63;;
10727;SDS011;5415;59.322;18.246;2023-02-28T15:10:51;3.13;;;0.93;;
10727;SDS011;5415;59.322;18.246;2023-02-28T15:13:21;1.07;;;0.73;;
10727;SDS011;5415;59.322;18.246;2023-02-28T15:15:51;1.23;;;0.90;;
10727;SDS011;5415;59.322;18.246;2023-02-28T15:18:22;0.80;;;0.80;;
10727;SDS011;5415;59.322;18.246;2023-02-28T15:20:50;1.43;;;0.70;;
10727;SDS011;5415;59.322;18.246;2023-02-28T15:23:18;1.17;;;0.90;;
10727;SDS011;5415;59.322;18.246;2023-02-28T15:25:51;2.90;;;0.97;;
10727;SDS011;5415;59.322;18.246;2023-02-28T15:28:20;1.90;;;1.00;;
10727;SDS011;5415;59.322;18.246;2023-02-28T15:30:51;2.23;;;0.93;;
10727;SDS011;5415;59.322;18.246;2023-02-28T15:33:20;5.03;;;1.10;;
10727;SDS011;5415;59.322;18.246;2023-02-28T15:35:49;2.53;;;1.10;;
10727;SDS011;5415;59.322;18.246;2023-02-28T15:38:21;3.63;;;1.00;;